Time;durP1;ratioP1;P1;durP2;ratioP2;P2;SDS_P1;SDS_P2;PMS_P1;PMS_P2;Temp;Humidity;BMP_temperature;BMP_pressure;BME280_temperature;BME280_humidity;BME280_pressure;Samples;Min_cycle;Max_cycle;Signal;HPM_P1;HPM_P2
2022/09/17 00:01:37;;;;;;;16.57;2.03;;;13.30;1.00;;;;;;5077649;28;20209;-79
2022/09/17 00:04:04;;;;;;;11.37;2.03;;;13.40;1.00;;;;;;5075666;28;20201;-77
2022/09/17 00:06:33;;;;;;;8.50;2.20;;;13.40;1.00;;;;;;5075809;28;20205;-77
2022/09/17 00:09:02;;;;;;;10.63;2.33;;;13.40;1.00;;;;;;5076409;28;20201;-79
2022/09/17 00:11:31;;;;;;;10.20;2.20;;;13.40;1.00;;;;;;5075318;28;20224;-79
2022/09/17 00:14:00;;;;;;;13.13;2.20;;;13.40;1.00;;;;;;5076147;28;20190;-78
2022/09/17 00:16:29;;;;;;;8.20;1.93;;;13.40;1.00;;;;;;5075665;28;20268;-78
2022/09/17 00:18:57;;;;;;;12.13;2.50;;;13.40;1.00;;;;;;5074935;28;20628;-79
2022/09/17 00:21:25;;;;;;;13.20;2.40;;;13.50;1.00;;;;;;5075842;28;20383;-78
2022/09/17 00:23:56;;;;;;;8.97;2.27;;;13.40;1.00;;;;;;5074974;28;20200;-78
2022/09/17 00:26:25;;;;;;;13.70;3.07;;;13.50;1.00;;;;;;5075635;28;20200;-78
2022/09/17 00:28:53;;;;;;;9.57;2.00;;;13.50;1.00;;;;;;5092067;28;20671;-77
2022/09/17 00:31:20;;;;;;;8.97;2.33;;;13.60;1.00;;;;;;5095388;28;20199;-78
2022/09/17 00:33:47;;;;;;;9.40;2.20;;;13.60;1.00;;;;;;5091098;28;20233;-78
2022/09/17 00:36:14;;;;;;;11.30;2.10;;;13.60;1.00;;;;;;5074935;22;20240;-78
2022/09/17 00:38:42;;;;;;;10.27;2.37;;;13.60;1.00;;;;;;5054509;28;20236;-78
2022/09/17 00:41:09;;;;;;;12.30;2.43;;;13.60;1.00;;;;;;5055564;28;20201;-78
2022/09/17 00:43:41;;;;;;;12.20;2.60;;;13.60;1.00;;;;;;5047342;28;20206;-79
2022/09/17 00:46:20;;;;;;;7.40;2.03;;;13.60;1.00;;;;;;5036214;28;20191;-78
2022/09/17 00:48:48;;;;;;;10.20;1.97;;;13.50;1.00;;;;;;5037252;28;20186;-78
2022/09/17 00:51:20;;;;;;;7.57;2.07;;;13.50;1.00;;;;;;5035467;28;20619;-78
2022/09/17 00:53:47;;;;;;;12.90;2.60;;;13.40;1.00;;;;;;5034371;28;20202;-78
2022/09/17 00:56:21;;;;;;;15.23;2.93;;;13.30;7.70;;;;;;5035180;28;20207;-78
2022/09/17 00:58:51;;;;;;;11.23;2.17;;;13.30;22.30;;;;;;5034507;28;20238;-77
2022/09/17 01:01:18;;;;;;;13.67;3.03;;;13.20;28.30;;;;;;5035123;28;20199;-77
2022/09/17 01:03:46;;;;;;;11.93;2.20;;;13.20;41.30;;;;;;5035157;28;20206;-78
2022/09/17 01:06:20;;;;;;;9.90;2.80;;;13.10;59.40;;;;;;5033949;28;20232;-78
2022/09/17 01:09:05;;;;;;;13.97;2.03;;;13.00;51.70;;;;;;5035087;28;20194;-78
2022/09/17 01:11:56;;;;;;;12.27;2.80;;;13.00;45.20;;;;;;5035110;28;20218;-80
2022/09/17 01:14:47;;;;;;;12.20;2.70;;;13.00;1.00;;;;;;5034154;28;20199;-77
2022/09/17 01:17:20;;;;;;;15.07;2.60;;;13.00;1.00;;;;;;5035180;28;20179;-78
2022/09/17 01:20:25;;;;;;;11.30;2.73;;;13.10;1.00;;;;;;5034652;28;20226;-78
2022/09/17 01:23:07;;;;;;;16.60;2.97;;;13.20;1.00;;;;;;5034756;28;20201;-77
2022/09/17 01:25:44;;;;;;;13.23;2.97;;;13.30;1.00;;;;;;5034680;28;20202;-78
2022/09/17 01:28:33;;;;;;;11.37;3.00;;;13.40;1.00;;;;;;5034057;28;20202;-77
2022/09/17 01:31:34;;;;;;;7.27;1.87;;;13.50;1.00;;;;;;5034279;28;20603;-78
2022/09/17 01:34:11;;;;;;;7.57;2.07;;;13.50;1.00;;;;;;5033695;28;20199;-77
2022/09/17 01:36:56;;;;;;;6.23;2.00;;;13.60;1.00;;;;;;5034252;28;20497;-77
2022/09/17 01:39:34;;;;;;;9.87;2.37;;;13.60;1.00;;;;;;5034540;28;20265;-77
2022/09/17 01:42:10;;;;;;;9.27;2.43;;;13.60;1.00;;;;;;5033616;28;20656;-78
2022/09/17 01:44:42;;;;;;;15.83;2.20;;;13.70;1.00;;;;;;5034262;28;20228;-77
2022/09/17 01:47:18;;;;;;;11.03;2.57;;;13.70;1.00;;;;;;5034468;28;20206;-77
2022/09/17 01:49:45;;;;;;;12.03;2.30;;;13.70;1.00;;;;;;5033694;28;20252;-77
2022/09/17 01:52:14;;;;;;;14.33;2.60;;;13.70;1.00;;;;;;5033930;28;20191;-77
2022/09/17 01:54:46;;;;;;;12.10;2.60;;;13.70;1.00;;;;;;5033755;28;20202;-77
2022/09/17 01:57:17;;;;;;;12.90;2.80;;;13.70;1.00;;;;;;5033401;28;20224;-78
2022/09/17 01:59:49;;;;;;;9.73;2.07;;;13.70;1.00;;;;;;5034097;28;20229;-77
2022/09/17 02:02:23;;;;;;;6.80;1.80;;;13.60;1.00;;;;;;5033453;28;20199;-78
2022/09/17 02:04:57;;;;;;;10.53;2.20;;;13.70;1.00;;;;;;5033886;28;20195;-78
2022/09/17 02:07:25;;;;;;;9.30;2.17;;;13.70;1.00;;;;;;5038796;28;20284;-78
2022/09/17 02:09:58;;;;;;;14.30;2.73;;;13.80;1.00;;;;;;5053339;28;20244;-77
2022/09/17 02:12:33;;;;;;;9.97;2.70;;;13.80;1.00;;;;;;5040030;28;20254;-78
2022/09/17 02:15:03;;;;;;;15.23;2.83;;;13.80;1.00;;;;;;5033875;28;20187;-78
2022/09/17 02:17:37;;;;;;;11.57;3.00;;;13.80;1.00;;;;;;5032652;28;20598;-77
2022/09/17 02:20:04;;;;;;;16.33;3.33;;;13.80;1.00;;;;;;5046770;22;20272;-77
2022/09/17 02:22:39;;;;;;;18.33;2.93;;;13.70;1.00;;;;;;5053528;28;20221;-78
2022/09/17 02:25:14;;;;;;;13.20;2.50;;;13.60;1.00;;;;;;5046086;28;20217;-78
2022/09/17 02:27:52;;;;;;;11.67;2.40;;;13.50;1.00;;;;;;5046814;28;20189;-77
2022/09/17 02:30:19;;;;;;;16.87;2.57;;;13.40;1.00;;;;;;5033030;28;20210;-78
2022/09/17 02:32:48;;;;;;;13.37;2.27;;;13.30;1.00;;;;;;5032463;28;20430;-78
2022/09/17 02:35:15;;;;;;;10.63;2.90;;;13.20;1.00;;;;;;5033365;28;20293;-77
2022/09/17 02:37:43;;;;;;;12.70;2.47;;;13.20;1.00;;;;;;5032634;28;20511;-78
2022/09/17 02:40:12;;;;;;;12.37;2.37;;;13.20;1.00;;;;;;5032503;28;20222;-78
2022/09/17 02:42:54;;;;;;;9.60;1.80;;;13.20;1.00;;;;;;5033109;28;20229;-78
2022/09/17 02:45:39;;;;;;;9.10;2.83;;;13.30;1.00;;;;;;5032767;28;20208;-77
2022/09/17 02:48:27;;;;;;;9.87;1.87;;;13.40;1.00;;;;;;5032358;28;20194;-78
2022/09/17 02:51:14;;;;;;;13.33;2.83;;;13.40;1.00;;;;;;5033387;28;20199;-77
2022/09/17 02:53:51;;;;;;;8.53;2.00;;;13.40;1.00;;;;;;5032497;28;20534;-79
2022/09/17 02:56:27;;;;;;;11.53;2.53;;;13.40;1.00;;;;;;5025682;28;20199;-78
2022/09/17 02:59:01;;;;;;;10.50;2.10;;;13.50;1.00;;;;;;5012897;28;20223;-78
2022/09/17 03:01:33;;;;;;;10.37;1.80;;;13.50;1.00;;;;;;5013412;28;20183;-78
2022/09/17 03:04:04;;;;;;;11.70;2.30;;;13.50;1.00;;;;;;5013692;28;20193;-78
2022/09/17 03:06:31;;;;;;;10.43;2.03;;;13.60;1.00;;;;;;5029361;28;20221;-80
2022/09/17 03:08:58;;;;;;;8.13;1.40;;;13.60;1.00;;;;;;5014792;28;20207;-78
2022/09/17 03:11:25;;;;;;;9.53;1.90;;;13.50;1.00;;;;;;5018520;28;20210;-78
2022/09/17 03:13:52;;;;;;;8.43;2.27;;;13.50;1.00;;;;;;5032378;28;20191;-79
2022/09/17 03:16:19;;;;;;;9.67;1.80;;;13.40;1.00;;;;;;5033186;28;20277;-77
2022/09/17 03:18:46;;;;;;;9.70;2.33;;;13.30;1.00;;;;;;5034486;28;20609;-79
2022/09/17 03:21:14;;;;;;;7.87;1.50;;;13.20;1.00;;;;;;5035028;28;20560;-79
2022/09/17 03:23:41;;;;;;;7.07;1.30;;;13.10;1.00;;;;;;5036937;28;20190;-79
2022/09/17 03:26:08;;;;;;;3.17;1.10;;;13.10;1.00;;;;;;5035580;28;20241;-78
2022/09/17 03:28:35;;;;;;;6.50;1.50;;;13.00;1.00;;;;;;5036331;28;20221;-78
2022/09/17 03:31:01;;;;;;;8.47;1.73;;;13.00;1.00;;;;;;5035871;28;20194;-78
2022/09/17 03:33:28;;;;;;;5.97;1.30;;;12.90;1.00;;;;;;5036425;28;20516;-78
2022/09/17 03:35:55;;;;;;;8.37;1.37;;;12.80;1.00;;;;;;5036338;28;20289;-79
2022/09/17 03:38:23;;;;;;;6.13;1.60;;;12.80;1.00;;;;;;5035767;28;20201;-78
2022/09/17 03:40:58;;;;;;;5.37;1.30;;;12.70;1.00;;;;;;5035570;28;21007;-78
2022/09/17 03:43:25;;;;;;;3.33;1.23;;;12.80;1.00;;;;;;5035700;28;20586;-77
2022/09/17 03:45:51;;;;;;;4.90;1.30;;;12.80;1.00;;;;;;5017498;28;20518;-78
2022/09/17 03:48:18;;;;;;;9.93;1.87;;;12.80;1.00;;;;;;5019150;28;20245;-78
2022/09/17 03:50:45;;;;;;;6.07;1.40;;;12.90;1.00;;;;;;5036218;28;20206;-78
2022/09/17 03:53:12;;;;;;;11.80;2.20;;;13.00;1.00;;;;;;5035440;28;20522;-78
2022/09/17 03:55:40;;;;;;;10.27;2.20;;;13.10;1.00;;;;;;5015771;28;20203;-79
2022/09/17 03:58:08;;;;;;;11.47;1.97;;;13.20;1.00;;;;;;5016405;28;20195;-80
2022/09/17 04:00:35;;;;;;;7.87;1.60;;;13.20;1.00;;;;;;5016428;28;20219;-79
2022/09/17 04:03:03;;;;;;;6.13;1.37;;;13.10;1.00;;;;;;5030429;28;20756;-79
2022/09/17 04:05:29;;;;;;;1.87;0.80;;;12.90;1.00;;;;;;5036133;28;20249;-78
2022/09/17 04:07:56;;;;;;;10.23;1.17;;;12.80;1.00;;;;;;5035570;28;20191;-78
2022/09/17 04:10:23;;;;;;;4.77;1.20;;;12.70;1.00;;;;;;5015618;28;20195;-78
2022/09/17 04:12:51;;;;;;;3.30;0.80;;;12.50;1.00;;;;;;5016306;28;20199;-78
2022/09/17 04:15:18;;;;;;;8.17;1.63;;;12.40;1.00;;;;;;5016310;28;20199;-79
2022/09/17 04:17:45;;;;;;;6.03;1.20;;;12.30;1.00;;;;;;5022605;28;20775;-79
2022/09/17 04:20:12;;;;;;;7.57;1.60;;;12.20;12.10;;;;;;5035613;28;20237;-78
2022/09/17 04:22:39;;;;;;;8.67;1.60;;;12.20;38.20;;;;;;5035566;28;20199;-78
2022/09/17 04:25:06;;;;;;;8.17;1.77;;;12.30;72.50;;;;;;5034238;28;20225;-78
2022/09/17 04:27:33;;;;;;;8.77;1.77;;;12.30;88.70;;;;;;5036281;28;20194;-79
2022/09/17 04:30:01;;;;;;;14.50;2.63;;;12.30;93.20;;;;;;5034817;28;20238;-79
2022/09/17 04:32:28;;;;;;;9.10;1.97;;;12.30;99.90;;;;;;5034527;28;20197;-77
2022/09/17 04:34:55;;;;;;;17.20;2.07;;;12.30;99.90;;;;;;5035623;28;20592;-78
2022/09/17 04:37:22;;;;;;;11.30;1.63;;;12.20;99.90;;;;;;5033763;28;20505;-79
2022/09/17 04:39:49;;;;;;;12.10;2.00;;;12.30;99.90;;;;;;5035569;28;20238;-78
2022/09/17 04:42:16;;;;;;;8.33;1.87;;;12.30;99.90;;;;;;5035404;28;20221;-80
2022/09/17 04:44:43;;;;;;;11.23;2.27;;;12.30;99.90;;;;;;5033786;28;20199;-79
2022/09/17 04:47:11;;;;;;;7.20;1.87;;;12.30;99.90;;;;;;5035265;28;20205;-78
2022/09/17 04:49:38;;;;;;;7.20;1.50;;;12.30;99.90;;;;;;5035385;28;20198;-78
2022/09/17 04:52:05;;;;;;;11.50;1.60;;;12.10;99.90;;;;;;5034775;28;20195;-77
2022/09/17 04:54:32;;;;;;;9.93;1.63;;;12.10;99.90;;;;;;5034111;28;20210;-78
2022/09/17 04:56:59;;;;;;;12.37;1.80;;;12.00;99.90;;;;;;5035275;28;20726;-77
2022/09/17 04:59:26;;;;;;;12.37;2.60;;;12.00;99.90;;;;;;5034674;28;20221;-78
2022/09/17 05:01:53;;;;;;;8.30;1.87;;;11.90;99.90;;;;;;5034911;28;20206;-77
2022/09/17 05:04:22;;;;;;;9.23;1.70;;;11.90;99.90;;;;;;5033597;28;20284;-77
2022/09/17 05:06:48;;;;;;;10.93;1.70;;;12.00;99.90;;;;;;5034338;28;20206;-78
2022/09/17 05:09:15;;;;;;;8.70;1.53;;;12.00;99.90;;;;;;5035009;28;20506;-78
2022/09/17 05:11:42;;;;;;;6.03;1.23;;;12.00;99.90;;;;;;5034084;28;20209;-77
2022/09/17 05:14:09;;;;;;;6.27;1.27;;;12.00;99.90;;;;;;5034540;28;20203;-77
2022/09/17 05:16:36;;;;;;;11.47;2.33;;;11.90;99.90;;;;;;5034498;28;20210;-77
2022/09/17 05:19:03;;;;;;;9.27;2.03;;;11.90;99.90;;;;;;5033276;28;20211;-78
2022/09/17 05:21:31;;;;;;;9.40;1.77;;;11.90;99.90;;;;;;5034632;28;20321;-78
2022/09/17 05:24:00;;;;;;;13.37;1.70;;;11.90;99.90;;;;;;5034075;28;20325;-78
2022/09/17 05:26:28;;;;;;;3.77;1.30;;;11.80;99.90;;;;;;5032726;28;20290;-78
2022/09/17 05:28:55;;;;;;;4.80;1.30;;;11.80;99.90;;;;;;5034727;28;20222;-78
2022/09/17 05:31:22;;;;;;;6.97;1.03;;;11.80;99.90;;;;;;5034698;28;20202;-79
2022/09/17 05:33:48;;;;;;;10.13;1.40;;;11.80;99.90;;;;;;5033721;28;20199;-78
2022/09/17 05:36:15;;;;;;;7.77;1.43;;;11.90;99.90;;;;;;5032003;28;20603;-79
2022/09/17 05:38:43;;;;;;;10.37;2.80;;;11.90;99.90;;;;;;5034793;28;20206;-77
2022/09/17 05:41:10;;;;;;;8.87;1.37;;;12.00;99.90;;;;;;5032989;28;20226;-77
2022/09/17 05:43:37;;;;;;;5.00;1.50;;;12.00;99.90;;;;;;5033017;28;20207;-78
2022/09/17 05:46:05;;;;;;;4.57;1.17;;;12.00;99.90;;;;;;5034253;28;20657;-78
2022/09/17 05:48:32;;;;;;;9.87;1.73;;;12.00;99.90;;;;;;5032715;28;20752;-79
2022/09/17 05:50:59;;;;;;;9.73;1.30;;;12.00;99.90;;;;;;5034212;28;20291;-79
2022/09/17 05:53:26;;;;;;;3.83;1.27;;;11.90;99.90;;;;;;5034048;28;20207;-78
2022/09/17 05:55:57;;;;;;;7.87;1.77;;;11.90;99.90;;;;;;5032353;28;20300;-81
2022/09/17 05:58:25;;;;;;;6.57;1.47;;;11.90;99.90;;;;;;5026776;28;20203;-76
2022/09/17 06:00:53;;;;;;;4.60;1.13;;;11.90;99.90;;;;;;5014177;28;20231;-77
2022/09/17 06:03:21;;;;;;;8.60;1.20;;;12.00;99.90;;;;;;5013852;28;20196;-77
2022/09/17 06:05:54;;;;;;;6.87;1.43;;;12.10;99.90;;;;;;5014153;28;20207;-77
2022/09/17 06:08:20;;;;;;;9.03;1.57;;;12.20;99.90;;;;;;5022523;28;20206;-78
2022/09/17 06:10:48;;;;;;;5.90;1.50;;;12.30;99.90;;;;;;5033630;28;20285;-77
2022/09/17 06:13:16;;;;;;;7.53;1.40;;;12.40;93.20;;;;;;5033752;28;20194;-78
2022/09/17 06:15:43;;;;;;;6.57;1.20;;;12.40;29.70;;;;;;5033516;28;20212;-77
2022/09/17 06:18:10;;;;;;;6.73;1.20;;;12.50;1.00;;;;;;5033052;28;20297;-78
2022/09/17 06:20:36;;;;;;;7.37;1.30;;;12.60;1.00;;;;;;5033294;28;20539;-78
2022/09/17 06:23:03;;;;;;;5.87;1.20;;;12.60;1.00;;;;;;5033252;28;20584;-76
2022/09/17 06:25:30;;;;;;;4.33;0.87;;;12.70;1.00;;;;;;5032691;28;20206;-77
2022/09/17 06:27:57;;;;;;;7.30;1.40;;;12.70;1.00;;;;;;5033168;28;20290;-78
2022/09/17 06:30:25;;;;;;;4.60;1.27;;;12.80;1.00;;;;;;5032180;28;20649;-77
2022/09/17 06:32:52;;;;;;;10.03;1.80;;;12.90;1.00;;;;;;5033534;28;20202;-77
2022/09/17 06:35:19;;;;;;;12.23;2.00;;;13.00;1.00;;;;;;5033872;28;20197;-79
2022/09/17 06:37:46;;;;;;;11.53;2.73;;;13.00;1.00;;;;;;5032700;28;20202;-78
2022/09/17 06:40:12;;;;;;;5.70;1.30;;;13.00;14.90;;;;;;5018718;28;20229;-78
2022/09/17 06:42:40;;;;;;;7.97;1.53;;;12.90;30.20;;;;;;5013539;28;20647;-78
2022/09/17 06:45:07;;;;;;;5.07;1.70;;;12.80;56.00;;;;;;5012677;28;20238;-77
2022/09/17 06:47:35;;;;;;;5.10;1.03;;;12.70;44.30;;;;;;5014161;28;20203;-77
2022/09/17 06:50:02;;;;;;;5.63;1.30;;;12.60;54.30;;;;;;5033549;28;20209;-77
2022/09/17 06:52:29;;;;;;;9.93;1.57;;;12.60;48.30;;;;;;5032414;28;20583;-77
2022/09/17 06:54:56;;;;;;;5.37;1.50;;;12.60;71.00;;;;;;5033191;28;20207;-77
2022/09/17 06:57:23;;;;;;;6.03;1.10;;;12.60;85.20;;;;;;5032229;28;20212;-78
2022/09/17 06:59:50;;;;;;;8.27;1.87;;;12.70;97.80;;;;;;5032544;28;20677;-78
2022/09/17 07:02:17;;;;;;;10.30;2.00;;;12.80;99.90;;;;;;5033148;28;20199;-77
2022/09/17 07:04:45;;;;;;;11.73;1.70;;;12.90;99.90;;;;;;5031586;28;20198;-77
2022/09/17 07:07:12;;;;;;;16.07;2.63;;;13.00;99.90;;;;;;5033356;28;20202;-77
2022/09/17 07:09:39;;;;;;;11.23;2.20;;;13.10;91.60;;;;;;5031843;28;20198;-76
2022/09/17 07:12:08;;;;;;;18.67;2.57;;;13.20;60.30;;;;;;5032426;28;20201;-77
2022/09/17 07:14:35;;;;;;;8.60;2.03;;;13.20;69.30;;;;;;5031639;28;20192;-77
2022/09/17 07:17:02;;;;;;;8.17;1.97;;;13.30;82.20;;;;;;5033129;28;20199;-76
2022/09/17 07:19:29;;;;;;;9.17;2.17;;;13.40;37.20;;;;;;5032380;28;20202;-77
2022/09/17 07:21:57;;;;;;;10.10;1.80;;;13.60;4.90;;;;;;5031785;28;20226;-76
2022/09/17 07:24:24;;;;;;;7.90;1.60;;;13.70;1.00;;;;;;5033008;28;20205;-76
2022/09/17 07:26:51;;;;;;;5.27;1.20;;;13.80;1.00;;;;;;5032486;28;20194;-77
2022/09/17 07:29:17;;;;;;;6.63;1.20;;;13.90;1.00;;;;;;5032114;28;20579;-77
2022/09/17 07:31:44;;;;;;;4.60;1.20;;;13.90;1.00;;;;;;5033163;28;20194;-76
2022/09/17 07:34:11;;;;;;;6.63;1.43;;;14.00;1.00;;;;;;5032208;28;20209;-76
2022/09/17 07:36:38;;;;;;;5.80;1.37;;;14.00;1.00;;;;;;5031094;28;20198;-76
2022/09/17 07:39:06;;;;;;;7.90;1.40;;;14.10;1.00;;;;;;5013352;28;20199;-77
2022/09/17 07:41:34;;;;;;;12.43;1.73;;;14.10;1.00;;;;;;5012699;28;20237;-78
2022/09/17 07:44:01;;;;;;;7.23;1.20;;;14.00;1.00;;;;;;5029427;28;20292;-78
2022/09/17 07:46:28;;;;;;;7.10;1.77;;;13.80;1.00;;;;;;5032924;28;20280;-77
2022/09/17 07:48:55;;;;;;;7.93;1.27;;;13.60;1.00;;;;;;5032038;28;20191;-77
2022/09/17 07:51:27;;;;;;;9.50;1.77;;;13.40;14.30;;;;;;5031417;28;20517;-78
2022/09/17 07:53:56;;;;;;;7.53;1.60;;;13.30;31.60;;;;;;5031474;28;20206;-78
2022/09/17 07:56:26;;;;;;;5.47;1.20;;;13.10;57.10;;;;;;5013315;28;20565;-77
2022/09/17 07:58:53;;;;;;;10.27;1.90;;;13.00;85.70;;;;;;5013007;28;20223;-77
2022/09/17 08:01:21;;;;;;;7.93;1.60;;;13.00;99.90;;;;;;5026765;28;20226;-77
2022/09/17 08:03:49;;;;;;;9.23;1.63;;;13.00;99.90;;;;;;5032692;28;20882;-77
2022/09/17 08:06:19;;;;;;;6.77;1.30;;;13.10;99.90;;;;;;5036507;28;20208;-77
2022/09/17 08:08:46;;;;;;;6.70;1.60;;;13.20;99.90;;;;;;5035403;28;20203;-78
2022/09/17 08:11:15;;;;;;;7.23;1.60;;;13.30;99.90;;;;;;5017898;28;20209;-77
2022/09/17 08:13:43;;;;;;;10.13;1.77;;;13.40;99.90;;;;;;5016367;28;20204;-77
2022/09/17 08:16:12;;;;;;;5.27;1.63;;;13.50;99.90;;;;;;5015437;28;20642;-79
2022/09/17 08:18:39;;;;;;;7.57;1.33;;;13.80;95.50;;;;;;5017043;28;20195;-78
2022/09/17 08:21:07;;;;;;;3.07;0.80;;;13.90;63.30;;;;;;5016078;28;20331;-77
2022/09/17 08:23:36;;;;;;;7.70;1.10;;;13.80;41.40;;;;;;5032303;28;20603;-77
2022/09/17 08:26:07;;;;;;;2.03;0.80;;;13.70;29.60;;;;;;5034515;28;20514;-77
2022/09/17 08:28:35;;;;;;;4.83;1.27;;;13.60;5.70;;;;;;5035611;28;20227;-77
2022/09/17 08:31:05;;;;;;;9.00;1.13;;;13.40;10.80;;;;;;5028904;28;20198;-76
2022/09/17 08:33:32;;;;;;;10.27;1.30;;;13.30;36.00;;;;;;5015948;28;20204;-77
2022/09/17 08:36:00;;;;;;;6.33;1.70;;;13.30;64.20;;;;;;5015222;28;20224;-76
2022/09/17 08:38:27;;;;;;;4.90;1.10;;;13.60;96.70;;;;;;5015845;28;20583;-77
2022/09/17 08:41:08;;;;;;;7.17;1.07;;;13.80;49.00;;;;;;5028417;28;20244;-78
2022/09/17 08:43:40;;;;;;;5.80;1.20;;;14.00;3.30;;;;;;5035003;28;20207;-77
2022/09/17 08:46:10;;;;;;;9.70;1.57;;;14.20;1.00;;;;;;5034515;28;20199;-78
2022/09/17 08:48:42;;;;;;;8.67;1.60;;;14.50;1.00;;;;;;5035386;28;20774;-76
2022/09/17 08:51:23;;;;;;;8.93;1.80;;;14.80;1.00;;;;;;5033402;28;20218;-77
2022/09/17 08:54:03;;;;;;;6.20;1.20;;;15.00;1.00;;;;;;5035316;28;20194;-77
2022/09/17 08:56:34;;;;;;;5.90;1.07;;;15.10;1.00;;;;;;5035536;28;20187;-77
2022/09/17 08:59:29;;;;;;;4.10;1.20;;;15.10;1.00;;;;;;5015367;28;20210;-77
2022/09/17 09:02:02;;;;;;;11.07;2.07;;;15.20;1.00;;;;;;5002314;28;20231;-77
2022/09/17 09:04:54;;;;;;;6.90;1.67;;;15.30;1.00;;;;;;5029507;28;20476;-78
2022/09/17 09:07:25;;;;;;;6.20;1.90;;;15.40;1.00;;;;;;5035264;28;20285;-77
2022/09/17 09:10:02;;;;;;;6.87;1.47;;;15.50;1.00;;;;;;5034275;28;20202;-78
2022/09/17 09:12:33;;;;;;;8.00;1.50;;;15.50;1.00;;;;;;5032724;28;20596;-79
2022/09/17 09:15:02;;;;;;;6.67;1.37;;;15.40;1.00;;;;;;5029917;28;20666;-77
2022/09/17 09:17:38;;;;;;;5.40;1.10;;;15.20;1.00;;;;;;5021754;28;20194;-77
2022/09/17 09:20:12;;;;;;;8.73;1.83;;;15.10;1.00;;;;;;5031552;28;20230;-77
2022/09/17 09:22:46;;;;;;;8.40;1.80;;;15.10;1.00;;;;;;5034837;28;20222;-77
2022/09/17 09:25:22;;;;;;;10.27;1.43;;;15.20;1.00;;;;;;5034427;28;20194;-77
2022/09/17 09:28:07;;;;;;;6.40;1.23;;;15.30;1.00;;;;;;5033472;28;20214;-77
2022/09/17 09:30:48;;;;;;;9.80;1.63;;;15.50;1.00;;;;;;5034865;28;20206;-77
2022/09/17 09:33:26;;;;;;;9.80;1.80;;;15.70;1.00;;;;;;5033822;28;20232;-77
2022/09/17 09:35:52;;;;;;;11.40;1.90;;;16.00;1.00;;;;;;5033226;28;20561;-77
2022/09/17 09:38:29;;;;;;;8.03;1.90;;;16.10;1.00;;;;;;5034543;28;20782;-78
2022/09/17 09:41:02;;;;;;;11.93;2.00;;;16.10;1.00;;;;;;5032896;28;20234;-78
2022/09/17 09:43:39;;;;;;;11.80;2.45;;;16.10;1.00;;;;;;5034073;28;20453;-77
2022/09/17 09:46:33;;;;;;;7.72;1.90;;;16.30;1.00;;;;;;5033317;28;20202;-77
2022/09/17 09:49:12;;;;;;;11.27;2.15;;;16.50;1.00;;;;;;5034288;28;20191;-79
2022/09/17 09:51:52;;;;;;;8.02;2.28;;;16.60;99.90;;;;;;5033052;28;20199;-77
2022/09/17 09:54:31;;;;;;;6.95;1.92;;;16.70;1.00;;;;;;5033576;28;20280;-78
2022/09/17 09:57:04;;;;;;;9.88;2.08;;;16.70;1.00;;;;;;5034391;28;20202;-76
2022/09/17 09:59:32;;;;;;;6.60;1.50;;;16.80;1.00;;;;;;5032653;28;20222;-77
2022/09/17 10:01:59;;;;;;;9.13;1.70;;;16.90;1.00;;;;;;5033510;28;20222;-77
2022/09/17 10:04:29;;;;;;;6.38;1.35;;;17.00;99.90;;;;;;5033979;28;20201;-77
2022/09/17 10:07:02;;;;;;;6.72;1.70;;;17.00;1.00;;;;;;5033093;28;20203;-78
2022/09/17 10:09:31;;;;;;;7.38;1.48;;;17.20;1.00;;;;;;5033392;28;20203;-76
2022/09/17 10:12:04;;;;;;;7.93;1.88;;;17.30;1.00;;;;;;5032631;28;20261;-76
2022/09/17 10:14:32;;;;;;;7.50;2.13;;;17.30;1.00;;;;;;5033032;28;20205;-77
2022/09/17 10:17:20;;;;;;;9.00;2.15;;;17.10;1.00;;;;;;5033921;28;20206;-77
2022/09/17 10:20:13;;;;;;;7.07;1.67;;;17.10;99.90;;;;;;5033918;28;20241;-77
2022/09/17 10:22:42;;;;;;;4.38;1.50;;;17.20;1.00;;;;;;5032164;28;20230;-77
2022/09/17 10:25:28;;;;;;;5.22;1.52;;;17.30;99.90;;;;;;5033627;28;20209;-76
2022/09/17 10:27:56;;;;;;;7.10;1.65;;;17.40;99.90;;;;;;5032285;28;20202;-78
2022/09/17 10:30:24;;;;;;;8.77;1.83;;;17.50;1.00;;;;;;5032919;28;20203;-77
2022/09/17 10:33:21;;;;;;;7.90;2.58;;;17.60;99.90;;;;;;5033646;28;20286;-77
2022/09/17 10:36:01;;;;;;;8.85;1.80;;;17.80;1.00;;;;;;5013279;28;20218;-77
2022/09/17 10:38:36;;;;;;;7.50;1.67;;;17.90;99.90;;;;;;5014181;28;20270;-78
2022/09/17 10:41:14;;;;;;;10.23;2.42;;;18.00;1.00;;;;;;5013932;28;20289;-77
2022/09/17 10:43:42;;;;;;;7.30;1.92;;;18.00;1.00;;;;;;5013037;28;20516;-77
2022/09/17 10:46:13;;;;;;;5.07;1.80;;;18.10;1.00;;;;;;5014004;28;20210;-77
2022/09/17 10:48:44;;;;;;;9.20;1.85;;;18.20;1.00;;;;;;5013977;28;20209;-78
2022/09/17 10:51:21;;;;;;;7.68;1.70;;;18.20;1.00;;;;;;5012977;28;20588;-77
2022/09/17 10:54:25;;;;;;;7.68;1.75;;;18.30;1.00;;;;;;5019301;28;20202;-78
2022/09/17 10:56:55;;;;;;;8.52;1.65;;;18.00;99.90;;;;;;5032548;28;20241;-77
2022/09/17 10:59:51;;;;;;;6.78;1.83;;;18.00;99.90;;;;;;5033052;28;20193;-76
2022/09/17 11:02:45;;;;;;;9.70;1.83;;;17.90;99.90;;;;;;5031293;28;20249;-76
2022/09/17 11:05:30;;;;;;;6.97;1.60;;;17.80;1.00;;;;;;5012903;28;20302;-78
2022/09/17 11:08:05;;;;;;;7.15;1.98;;;18.00;1.00;;;;;;5026883;28;20731;-77
2022/09/17 11:10:39;;;;;;;9.35;1.42;;;18.00;1.00;;;;;;5032015;28;20293;-76
2022/09/17 11:13:18;;;;;;;8.38;2.22;;;17.90;99.90;;;;;;5032858;28;20202;-77
2022/09/17 11:16:04;;;;;;;8.93;2.38;;;17.90;1.00;;;;;;5032994;28;20186;-75
2022/09/17 11:18:40;;;;;;;7.20;1.33;;;18.00;1.00;;;;;;5031376;28;20195;-76
2022/09/17 11:21:26;;;;;;;9.48;1.80;;;18.20;99.90;;;;;;5032531;28;20642;-76
2022/09/17 11:24:31;;;;;;;8.48;1.77;;;18.30;1.00;;;;;;5031682;28;20214;-76
2022/09/17 11:27:08;;;;;;;8.30;2.15;;;18.30;99.90;;;;;;5032650;28;20226;-76
2022/09/17 11:29:53;;;;;;;11.77;2.05;;;18.40;99.90;;;;;;5032618;28;20222;-77
2022/09/17 11:32:37;;;;;;;9.95;2.05;;;18.40;99.90;;;;;;5030759;28;20199;-77
2022/09/17 11:35:09;;;;;;;9.43;1.83;;;18.50;99.90;;;;;;5033215;28;20194;-77
2022/09/17 11:37:42;;;;;;;9.30;2.00;;;18.50;1.00;;;;;;5031961;28;20291;-76
2022/09/17 11:40:15;;;;;;;7.43;1.60;;;18.50;99.90;;;;;;5034284;28;20298;-76
2022/09/17 11:42:46;;;;;;;9.07;2.15;;;18.10;1.00;;;;;;5034934;28;20230;-76
2022/09/17 11:45:17;;;;;;;8.88;2.00;;;17.80;1.00;;;;;;5036723;28;20199;-77
2022/09/17 11:47:49;;;;;;;6.75;1.80;;;17.60;10.80;;;;;;5035885;28;20325;-76
2022/09/17 11:50:21;;;;;;;11.57;2.05;;;17.40;99.90;;;;;;5035084;28;20952;-76
2022/09/17 11:53:00;;;;;;;10.73;1.70;;;17.40;6.60;;;;;;5036565;28;20202;-76
2022/09/17 11:55:33;;;;;;;11.88;2.50;;;17.50;1.00;;;;;;5036555;28;20198;-76
2022/09/17 11:58:07;;;;;;;7.82;1.92;;;17.60;1.00;;;;;;5035410;28;20198;-75
2022/09/17 12:00:40;;;;;;;10.68;2.33;;;17.90;1.00;;;;;;5035772;28;20608;-77
2022/09/17 12:03:16;;;;;;;7.40;1.85;;;18.00;30.70;;;;;;5035284;28;20227;-76
2022/09/17 12:05:46;;;;;;;8.00;2.22;;;17.90;99.90;;;;;;5036466;28;20195;-77
2022/09/17 12:08:19;;;;;;;10.57;2.88;;;18.00;99.90;;;;;;5036208;28;20202;-78
2022/09/17 12:10:52;;;;;;;12.52;2.58;;;18.10;1.00;;;;;;5030759;28;20191;-77
2022/09/17 12:13:30;;;;;;;10.48;2.08;;;18.10;99.90;;;;;;5016014;28;20192;-77
2022/09/17 12:16:11;;;;;;;12.73;2.80;;;18.10;1.00;;;;;;5025840;28;20203;-77
2022/09/17 12:18:49;;;;;;;8.70;2.10;;;18.10;1.00;;;;;;5036271;28;20224;-76
2022/09/17 12:21:20;;;;;;;10.27;2.25;;;18.20;1.00;;;;;;5030123;28;20234;-77
2022/09/17 12:23:53;;;;;;;6.00;1.70;;;18.10;1.00;;;;;;5025895;28;20198;-78
2022/09/17 12:26:38;;;;;;;11.82;1.83;;;17.90;1.00;;;;;;5035586;28;20199;-77
2022/09/17 12:29:20;;;;;;;14.32;1.88;;;18.00;1.00;;;;;;5035085;28;20643;-76
2022/09/17 12:31:53;;;;;;;4.88;1.40;;;18.20;99.90;;;;;;5034393;28;20198;-78
2022/09/17 12:34:35;;;;;;;8.25;1.88;;;18.20;99.90;;;;;;5015995;28;20622;-74
2022/09/17 12:37:10;;;;;;;4.68;1.70;;;18.10;99.90;;;;;;5015438;28;20226;-78
2022/09/17 12:40:03;;;;;;;5.57;1.55;;;18.10;99.90;;;;;;5016036;28;20211;-76
2022/09/17 12:42:47;;;;;;;9.50;1.60;;;18.20;64.70;;;;;;5023899;28;20210;-76
2022/09/17 12:45:46;;;;;;;7.38;1.63;;;18.10;1.00;;;;;;5033992;28;20274;-75
2022/09/17 12:48:40;;;;;;;10.38;2.00;;;18.10;99.90;;;;;;5035474;28;20203;-76
2022/09/17 12:51:20;;;;;;;6.88;2.00;;;18.30;1.00;;;;;;5014505;28;20270;-76
2022/09/17 12:53:59;;;;;;;9.48;1.70;;;18.30;1.00;;;;;;5016590;28;20195;-76
2022/09/17 12:56:37;;;;;;;8.05;2.30;;;18.20;1.00;;;;;;5034761;28;20209;-76
2022/09/17 12:59:10;;;;;;;11.15;2.20;;;18.30;99.90;;;;;;5034984;28;20194;-76
2022/09/17 13:01:45;;;;;;;10.13;1.92;;;18.30;99.90;;;;;;5033849;28;20214;-75
2022/09/17 13:04:24;;;;;;;11.32;2.45;;;18.30;1.00;;;;;;5034806;28;20287;-76
2022/09/17 13:07:19;;;;;;;6.53;1.63;;;18.30;99.90;;;;;;5034810;28;20226;-75
2022/09/17 13:09:59;;;;;;;10.98;2.15;;;18.30;1.00;;;;;;5031179;28;20194;-76
2022/09/17 13:12:34;;;;;;;9.30;1.88;;;18.30;99.90;;;;;;5034347;28;20198;-76
2022/09/17 13:15:41;;;;;;;5.03;1.63;;;18.30;1.00;;;;;;5035112;28;20201;-75
2022/09/17 13:18:15;;;;;;;10.77;2.15;;;18.30;1.00;;;;;;5028704;28;20203;-75